sensor_id;sensor_type;location;lat;lon;timestamp;pressure;altitude;pressure_sealevel;temperature;humidity
76201;BME280;64981;52.930;9.266;2023-04-24T00:02:08;99704.84;;;11.60;77.17
76201;BME280;64981;52.930;9.266;2023-04-24T00:04:37;99695.16;;;11.67;76.60
76201;BME280;64981;52.930;9.266;2023-04-24T00:07:06;99692.13;;;11.70;76.73
76201;BME280;64981;52.930;9.266;2023-04-24T00:09:33;99702.88;;;11.40;77.59
76201;BME280;64981;52.930;9.266;2023-04-24T00:11:58;99688.41;;;11.36;77.39
76201;BME280;64981;52.930;9.266;2023-04-24T00:14:24;99691.34;;;11.76;76.25
76201;BME280;64981;52.930;9.266;2023-04-24T00:16:49;99695.03;;;11.54;76.64
76201;BME280;64981;52.930;9.266;2023-04-24T00:19:15;99688.06;;;11.74;76.15
76201;BME280;64981;52.930;9.266;2023-04-24T00:21:41;99684.59;;;11.73;76.05
76201;BME280;64981;52.930;9.266;2023-04-24T00:24:07;99680.91;;;11.68;75.68
76201;BME280;64981;52.930;9.266;2023-04-24T00:26:34;99685.00;;;11.70;75.34
76201;BME280;64981;52.930;9.266;2023-04-24T00:29:00;99687.06;;;11.75;75.22
76201;BME280;64981;52.930;9.266;2023-04-24T00:31:25;99686.28;;;11.81;74.51
76201;BME280;64981;52.930;9.266;2023-04-24T00:33:51;99688.06;;;11.74;74.92
76201;BME280;64981;52.930;9.266;2023-04-24T00:36:17;99675.47;;;11.76;74.48
76201;BME280;64981;52.930;9.266;2023-04-24T00:38:44;99676.94;;;11.85;74.51
76201;BME280;64981;52.930;9.266;2023-04-24T00:41:11;99680.53;;;11.71;74.59
76201;BME280;64981;52.930;9.266;2023-04-24T00:43:36;99680.97;;;11.47;75.24
76201;BME280;64981;52.930;9.266;2023-04-24T00:46:02;99687.00;;;11.40;75.62
76201;BME280;64981;52.930;9.266;2023-04-24T00:48:27;99687.25;;;11.46;74.99
76201;BME280;64981;52.930;9.266;2023-04-24T00:50:53;99683.22;;;11.50;74.98
76201;BME280;64981;52.930;9.266;2023-04-24T00:53:19;99679.50;;;11.72;74.19
76201;BME280;64981;52.930;9.266;2023-04-24T00:55:45;99674.59;;;11.41;75.24
76201;BME280;64981;52.930;9.266;2023-04-24T00:58:11;99684.66;;;11.52;75.02
76201;BME280;64981;52.930;9.266;2023-04-24T01:00:37;99680.50;;;11.36;75.36
76201;BME280;64981;52.930;9.266;2023-04-24T01:03:04;99679.50;;;11.44;74.18
76201;BME280;64981;52.930;9.266;2023-04-24T01:05:30;99674.59;;;11.69;73.64
76201;BME280;64981;52.930;9.266;2023-04-24T01:07:56;99665.56;;;11.57;74.47
76201;BME280;64981;52.930;9.266;2023-04-24T01:10:24;99670.28;;;11.61;74.22
76201;BME280;64981;52.930;9.266;2023-04-24T01:12:51;99670.78;;;11.50;74.35
76201;BME280;64981;52.930;9.266;2023-04-24T01:15:17;99670.41;;;11.81;73.50
76201;BME280;64981;52.930;9.266;2023-04-24T01:17:42;99667.06;;;11.66;73.62
76201;BME280;64981;52.930;9.266;2023-04-24T01:20:08;99672.88;;;11.55;73.99
76201;BME280;64981;52.930;9.266;2023-04-24T01:22:34;99670.22;;;11.55;73.93
76201;BME280;64981;52.930;9.266;2023-04-24T01:25:00;99673.78;;;11.40;74.43
76201;BME280;64981;52.930;9.266;2023-04-24T01:27:26;99670.38;;;11.47;73.95
76201;BME280;64981;52.930;9.266;2023-04-24T01:29:51;99675.78;;;11.60;73.48
76201;BME280;64981;52.930;9.266;2023-04-24T01:32:17;99669.69;;;11.59;73.22
76201;BME280;64981;52.930;9.266;2023-04-24T01:34:45;99674.16;;;11.37;73.95
76201;BME280;64981;52.930;9.266;2023-04-24T01:37:10;99675.72;;;11.25;74.15
76201;BME280;64981;52.930;9.266;2023-04-24T01:39:36;99670.72;;;11.37;74.10
76201;BME280;64981;52.930;9.266;2023-04-24T01:42:02;99674.94;;;11.31;73.98
76201;BME280;64981;52.930;9.266;2023-04-24T01:44:28;99667.44;;;11.35;73.70
76201;BME280;64981;52.930;9.266;2023-04-24T01:46:54;99672.78;;;11.42;73.87
76201;BME280;64981;52.930;9.266;2023-04-24T01:49:20;99671.53;;;11.37;73.88
76201;BME280;64981;52.930;9.266;2023-04-24T01:51:46;99664.84;;;11.42;73.56
76201;BME280;64981;52.930;9.266;2023-04-24T01:54:12;99663.81;;;11.36;73.43
76201;BME280;64981;52.930;9.266;2023-04-24T01:56:42;99661.53;;;11.33;73.57
76201;BME280;64981;52.930;9.266;2023-04-24T01:59:10;99660.03;;;11.52;72.67
76201;BME280;64981;52.930;9.266;2023-04-24T02:01:37;99663.88;;;11.49;72.88
76201;BME280;64981;52.930;9.266;2023-04-24T02:04:05;99666.97;;;11.53;72.70
76201;BME280;64981;52.930;9.266;2023-04-24T02:06:31;99660.94;;;11.59;72.24
76201;BME280;64981;52.930;9.266;2023-04-24T02:08:58;99667.53;;;11.48;71.98
76201;BME280;64981;52.930;9.266;2023-04-24T02:11:25;99661.00;;;11.16;72.30
76201;BME280;64981;52.930;9.266;2023-04-24T02:13:51;99657.84;;;11.00;72.32
76201;BME280;64981;52.930;9.266;2023-04-24T02:16:17;99654.63;;;11.32;71.30
76201;BME280;64981;52.930;9.266;2023-04-24T02:18:43;99667.00;;;11.04;71.69
76201;BME280;64981;52.930;9.266;2023-04-24T02:21:09;99664.06;;;10.92;71.51
76201;BME280;64981;52.930;9.266;2023-04-24T02:23:35;99674.03;;;11.18;70.53
76201;BME280;64981;52.930;9.266;2023-04-24T02:26:00;99667.88;;;11.11;69.96
76201;BME280;64981;52.930;9.266;2023-04-24T02:28:26;99660.50;;;11.06;69.80
76201;BME280;64981;52.930;9.266;2023-04-24T02:30:52;99657.59;;;10.95;69.91
76201;BME280;64981;52.930;9.266;2023-04-24T02:33:17;99661.66;;;11.25;69.01
76201;BME280;64981;52.930;9.266;2023-04-24T02:35:43;99649.91;;;11.00;68.73
76201;BME280;64981;52.930;9.266;2023-04-24T02:38:08;99659.84;;;11.25;67.84
76201;BME280;64981;52.930;9.266;2023-04-24T02:40:34;99660.44;;;10.93;68.16
76201;BME280;64981;52.930;9.266;2023-04-24T02:42:59;99659.56;;;10.86;67.50
76201;BME280;64981;52.930;9.266;2023-04-24T02:45:25;99657.69;;;11.35;65.96
76201;BME280;64981;52.930;9.266;2023-04-24T02:47:51;99649.53;;;11.03;66.50
76201;BME280;64981;52.930;9.266;2023-04-24T02:50:16;99652.47;;;11.14;66.57
76201;BME280;64981;52.930;9.266;2023-04-24T02:52:42;99648.72;;;11.30;65.79
76201;BME280;64981;52.930;9.266;2023-04-24T02:55:07;99656.88;;;11.07;65.80
76201;BME280;64981;52.930;9.266;2023-04-24T02:57:33;99640.19;;;11.34;64.49
76201;BME280;64981;52.930;9.266;2023-04-24T02:59:59;99654.38;;;11.27;64.41
76201;BME280;64981;52.930;9.266;2023-04-24T03:02:25;99654.19;;;11.28;64.77
76201;BME280;64981;52.930;9.266;2023-04-24T03:04:50;99652.19;;;11.03;64.92
76201;BME280;64981;52.930;9.266;2023-04-24T03:07:16;99657.28;;;10.83;64.90
76201;BME280;64981;52.930;9.266;2023-04-24T03:09:41;99659.72;;;10.84;65.08
76201;BME280;64981;52.930;9.266;2023-04-24T03:12:07;99657.16;;;10.91;65.28
76201;BME280;64981;52.930;9.266;2023-04-24T03:14:33;99655.09;;;10.87;65.40
76201;BME280;64981;52.930;9.266;2023-04-24T03:16:58;99645.50;;;11.41;63.79
76201;BME280;64981;52.930;9.266;2023-04-24T03:19:24;99658.28;;;11.31;64.12
76201;BME280;64981;52.930;9.266;2023-04-24T03:21:50;99656.88;;;11.07;65.05
76201;BME280;64981;52.930;9.266;2023-04-24T03:24:15;99654.56;;;10.98;64.68
76201;BME280;64981;52.930;9.266;2023-04-24T03:26:41;99641.13;;;10.93;64.73
76201;BME280;64981;52.930;9.266;2023-04-24T03:29:07;99655.88;;;11.08;65.06
76201;BME280;64981;52.930;9.266;2023-04-24T03:31:32;99643.59;;;11.01;64.99
76201;BME280;64981;52.930;9.266;2023-04-24T03:33:58;99641.88;;;11.14;64.71
76201;BME280;64981;52.930;9.266;2023-04-24T03:36:23;99636.66;;;11.21;64.61
76201;BME280;64981;52.930;9.266;2023-04-24T03:38:49;99638.63;;;11.40;63.86
76201;BME280;64981;52.930;9.266;2023-04-24T03:41:15;99634.28;;;11.32;64.55
76201;BME280;64981;52.930;9.266;2023-04-24T03:43:40;99631.69;;;11.39;64.54
76201;BME280;64981;52.930;9.266;2023-04-24T03:46:06;99632.09;;;11.08;65.06
76201;BME280;64981;52.930;9.266;2023-04-24T03:48:34;99632.38;;;11.20;65.24
76201;BME280;64981;52.930;9.266;2023-04-24T03:51:00;99639.91;;;11.23;64.91
76201;BME280;64981;52.930;9.266;2023-04-24T03:53:26;99643.72;;;11.14;64.91
76201;BME280;64981;52.930;9.266;2023-04-24T03:55:52;99634.78;;;10.87;65.34
76201;BME280;64981;52.930;9.266;2023-04-24T03:58:18;99635.72;;;10.79;65.73
76201;BME280;64981;52.930;9.266;2023-04-24T04:00:44;99639.72;;;10.97;65.50
76201;BME280;64981;52.930;9.266;2023-04-24T04:03:09;99641.69;;;10.88;65.39
76201;BME280;64981;52.930;9.266;2023-04-24T04:05:35;99643.44;;;11.02;65.39
76201;BME280;64981;52.930;9.266;2023-04-24T04:08:01;99651.00;;;10.84;65.69
76201;BME280;64981;52.930;9.266;2023-04-24T04:10:26;99651.00;;;10.63;66.14
76201;BME280;64981;52.930;9.266;2023-04-24T04:12:52;99648.34;;;10.42;66.37
76201;BME280;64981;52.930;9.266;2023-04-24T04:15:17;99650.06;;;10.70;65.52
76201;BME280;64981;52.930;9.266;2023-04-24T04:17:43;99652.25;;;10.46;66.35
76201;BME280;64981;52.930;9.266;2023-04-24T04:20:08;99663.34;;;10.56;66.23
76201;BME280;64981;52.930;9.266;2023-04-24T04:22:36;99666.00;;;10.41;66.79
76201;BME280;64981;52.930;9.266;2023-04-24T04:25:02;99657.84;;;10.36;66.84
76201;BME280;64981;52.930;9.266;2023-04-24T04:27:28;99659.50;;;10.37;67.26
76201;BME280;64981;52.930;9.266;2023-04-24T04:29:58;99659.78;;;10.27;67.39
76201;BME280;64981;52.930;9.266;2023-04-24T04:32:28;99666.69;;;10.50;66.33
76201;BME280;64981;52.930;9.266;2023-04-24T04:34:53;99673.06;;;10.55;66.19
76201;BME280;64981;52.930;9.266;2023-04-24T04:37:19;99670.81;;;10.52;66.28
76201;BME280;64981;52.930;9.266;2023-04-24T04:39:44;99676.88;;;10.31;67.47
76201;BME280;64981;52.930;9.266;2023-04-24T04:42:10;99670.50;;;10.26;67.48
76201;BME280;64981;52.930;9.266;2023-04-24T04:44:36;99661.66;;;10.19;67.02
76201;BME280;64981;52.930;9.266;2023-04-24T04:47:02;99666.06;;;10.12;67.49
76201;BME280;64981;52.930;9.266;2023-04-24T04:49:31;99663.59;;;10.25;67.24
76201;BME280;64981;52.930;9.266;2023-04-24T04:51:57;99656.66;;;10.39;66.72
76201;BME280;64981;52.930;9.266;2023-04-24T04:54:23;99659.13;;;10.40;66.73
76201;BME280;64981;52.930;9.266;2023-04-24T04:56:50;99671.50;;;10.25;66.93
76201;BME280;64981;52.930;9.266;2023-04-24T04:59:15;99664.78;;;10.37;66.58
76201;BME280;64981;52.930;9.266;2023-04-24T05:01:41;99659.78;;;10.13;67.27
76201;BME280;64981;52.930;9.266;2023-04-24T05:04:07;99669.91;;;10.45;66.68
76201;BME280;64981;52.930;9.266;2023-04-24T05:06:32;99667.53;;;10.14;67.35
76201;BME280;64981;52.930;9.266;2023-04-24T05:08:58;99668.81;;;10.04;67.83
76201;BME280;64981;52.930;9.266;2023-04-24T05:11:23;99667.41;;;10.37;66.84
76201;BME280;64981;52.930;9.266;2023-04-24T05:13:50;99661.19;;;10.45;66.54
76201;BME280;64981;52.930;9.266;2023-04-24T05:16:15;99660.94;;;10.61;65.87
76201;BME280;64981;52.930;9.266;2023-04-24T05:18:41;99666.53;;;10.51;66.08
76201;BME280;64981;52.930;9.266;2023-04-24T05:21:07;99661.25;;;10.72;65.95
76201;BME280;64981;52.930;9.266;2023-04-24T05:23:32;99661.13;;;10.80;65.51
76201;BME280;64981;52.930;9.266;2023-04-24T05:25:58;99660.28;;;11.01;64.85
76201;BME280;64981;52.930;9.266;2023-04-24T05:28:23;99660.69;;;10.77;65.17
76201;BME280;64981;52.930;9.266;2023-04-24T05:30:54;99668.09;;;10.46;65.87
76201;BME280;64981;52.930;9.266;2023-04-24T05:33:21;99679.28;;;10.69;65.56
76201;BME280;64981;52.930;9.266;2023-04-24T05:35:48;99665.91;;;10.70;64.82
76201;BME280;64981;52.930;9.266;2023-04-24T05:38:14;99667.72;;;11.19;63.99
76201;BME280;64981;52.930;9.266;2023-04-24T05:40:43;99675.19;;;11.09;64.22
76201;BME280;64981;52.930;9.266;2023-04-24T05:43:08;99669.69;;;11.10;64.06
76201;BME280;64981;52.930;9.266;2023-04-24T05:45:34;99669.16;;;10.94;64.70
76201;BME280;64981;52.930;9.266;2023-04-24T05:48:02;99669.69;;;11.10;64.24
76201;BME280;64981;52.930;9.266;2023-04-24T05:50:28;99686.53;;;11.30;63.94
76201;BME280;64981;52.930;9.266;2023-04-24T05:52:53;99677.78;;;11.30;63.12
76201;BME280;64981;52.930;9.266;2023-04-24T05:55:19;99671.56;;;11.72;62.57
76201;BME280;64981;52.930;9.266;2023-04-24T05:57:45;99687.66;;;11.70;61.77
76201;BME280;64981;52.930;9.266;2023-04-24T06:00:11;99681.34;;;11.71;61.67
76201;BME280;64981;52.930;9.266;2023-04-24T06:02:38;99685.78;;;11.64;61.53
76201;BME280;64981;52.930;9.266;2023-04-24T06:05:04;99701.56;;;11.85;61.29
76201;BME280;64981;52.930;9.266;2023-04-24T06:07:30;99687.50;;;11.85;61.37
76201;BME280;64981;52.930;9.266;2023-04-24T06:09:56;99676.03;;;11.65;62.03
76201;BME280;64981;52.930;9.266;2023-04-24T06:12:22;99688.16;;;11.87;60.95
76201;BME280;64981;52.930;9.266;2023-04-24T06:14:48;99693.50;;;11.59;62.45
76201;BME280;64981;52.930;9.266;2023-04-24T06:17:15;99698.22;;;12.11;61.95
76201;BME280;64981;52.930;9.266;2023-04-24T06:19:41;99690.09;;;12.13;60.47
76201;BME280;64981;52.930;9.266;2023-04-24T06:22:06;99713.56;;;12.29;60.34
76201;BME280;64981;52.930;9.266;2023-04-24T06:24:34;99719.00;;;12.14;60.59
76201;BME280;64981;52.930;9.266;2023-04-24T06:26:59;99711.59;;;12.51;59.57
76201;BME280;64981;52.930;9.266;2023-04-24T06:29:27;99711.59;;;12.37;59.58
76201;BME280;64981;52.930;9.266;2023-04-24T06:31:53;99726.78;;;12.22;59.93
76201;BME280;64981;52.930;9.266;2023-04-24T06:34:18;99723.88;;;12.58;59.76
76201;BME280;64981;52.930;9.266;2023-04-24T06:36:44;99726.47;;;12.45;59.60
76201;BME280;64981;52.930;9.266;2023-04-24T06:39:10;99714.78;;;12.87;58.86
76201;BME280;64981;52.930;9.266;2023-04-24T06:41:35;99717.84;;;13.04;58.63
76201;BME280;64981;52.930;9.266;2023-04-24T06:44:01;99722.56;;;13.21;58.15
76201;BME280;64981;52.930;9.266;2023-04-24T06:46:26;99717.56;;;12.59;59.01
76201;BME280;64981;52.930;9.266;2023-04-24T06:48:54;99713.56;;;12.83;58.83
76201;BME280;64981;52.930;9.266;2023-04-24T06:51:23;99720.72;;;13.15;58.84
76201;BME280;64981;52.930;9.266;2023-04-24T06:53:49;99708.59;;;12.73;59.57
76201;BME280;64981;52.930;9.266;2023-04-24T06:56:15;99715.97;;;12.71;59.61
76201;BME280;64981;52.930;9.266;2023-04-24T06:58:41;99724.78;;;12.91;59.74
76201;BME280;64981;52.930;9.266;2023-04-24T07:01:07;99715.59;;;13.01;59.29
76201;BME280;64981;52.930;9.266;2023-04-24T07:03:32;99718.63;;;12.78;59.33
76201;BME280;64981;52.930;9.266;2023-04-24T07:05:58;99718.75;;;12.50;60.00
76201;BME280;64981;52.930;9.266;2023-04-24T07:08:24;99719.97;;;12.54;58.62
76201;BME280;64981;52.930;9.266;2023-04-24T07:10:51;99729.78;;;12.13;59.86
76201;BME280;64981;52.930;9.266;2023-04-24T07:13:16;99722.47;;;12.15;60.41
76201;BME280;64981;52.930;9.266;2023-04-24T07:15:43;99725.34;;;12.20;60.89
76201;BME280;64981;52.930;9.266;2023-04-24T07:18:09;99728.84;;;11.86;61.57
76201;BME280;64981;52.930;9.266;2023-04-24T07:20:35;99729.38;;;12.09;60.44
76201;BME280;64981;52.930;9.266;2023-04-24T07:23:00;99726.75;;;11.75;61.60
76201;BME280;64981;52.930;9.266;2023-04-24T07:25:26;99730.22;;;11.82;61.81
76201;BME280;64981;52.930;9.266;2023-04-24T07:27:52;99730.78;;;11.71;62.24
76201;BME280;64981;52.930;9.266;2023-04-24T07:30:18;99741.19;;;11.51;62.79
76201;BME280;64981;52.930;9.266;2023-04-24T07:32:44;99747.75;;;11.55;63.02
76201;BME280;64981;52.930;9.266;2023-04-24T07:35:09;99742.03;;;11.79;62.93
76201;BME280;64981;52.930;9.266;2023-04-24T07:37:36;99748.31;;;11.51;62.55
76201;BME280;64981;52.930;9.266;2023-04-24T07:40:02;99752.09;;;11.63;62.36
76201;BME280;64981;52.930;9.266;2023-04-24T07:42:28;99752.78;;;11.50;62.57
76201;BME280;64981;52.930;9.266;2023-04-24T07:44:55;99758.63;;;11.67;61.91
76201;BME280;64981;52.930;9.266;2023-04-24T07:47:21;99750.22;;;11.35;63.10
76201;BME280;64981;52.930;9.266;2023-04-24T07:49:47;99747.72;;;11.27;63.17
76201;BME280;64981;52.930;9.266;2023-04-24T07:52:12;99751.69;;;11.59;62.90
76201;BME280;64981;52.930;9.266;2023-04-24T07:54:38;99754.63;;;11.50;63.20
76201;BME280;64981;52.930;9.266;2023-04-24T07:57:03;99753.81;;;11.77;62.65
76201;BME280;64981;52.930;9.266;2023-04-24T07:59:29;99748.22;;;11.93;61.98
76201;BME280;64981;52.930;9.266;2023-04-24T08:01:55;99750.41;;;11.83;62.76
76201;BME280;64981;52.930;9.266;2023-04-24T08:04:21;99749.00;;;12.21;61.30
76201;BME280;64981;52.930;9.266;2023-04-24T08:06:47;99753.22;;;12.16;61.14
76201;BME280;64981;52.930;9.266;2023-04-24T08:09:13;99751.66;;;12.28;60.69
76201;BME280;64981;52.930;9.266;2023-04-24T08:11:39;99750.53;;;12.57;59.91
76201;BME280;64981;52.930;9.266;2023-04-24T08:14:04;99764.63;;;12.64;60.27
76201;BME280;64981;52.930;9.266;2023-04-24T08:16:32;99770.47;;;12.46;59.88
76201;BME280;64981;52.930;9.266;2023-04-24T08:18:58;99757.09;;;12.61;59.26
76201;BME280;64981;52.930;9.266;2023-04-24T08:21:23;99759.97;;;12.79;59.92
76201;BME280;64981;52.930;9.266;2023-04-24T08:23:49;99762.13;;;13.23;58.82
76201;BME280;64981;52.930;9.266;2023-04-24T08:26:15;99772.75;;;13.29;58.92
76201;BME280;64981;52.930;9.266;2023-04-24T08:28:42;99766.00;;;13.20;58.70
76201;BME280;64981;52.930;9.266;2023-04-24T08:31:07;99776.03;;;13.31;58.53
76201;BME280;64981;52.930;9.266;2023-04-24T08:33:33;99769.69;;;13.13;58.77
76201;BME280;64981;52.930;9.266;2023-04-24T08:36:03;99772.13;;;13.21;57.92
76201;BME280;64981;52.930;9.266;2023-04-24T08:38:30;99775.22;;;13.37;57.86
76201;BME280;64981;52.930;9.266;2023-04-24T08:40:59;99759.88;;;13.00;57.69
76201;BME280;64981;52.930;9.266;2023-04-24T08:43:25;99772.69;;;12.83;58.81
76201;BME280;64981;52.930;9.266;2023-04-24T08:45:52;99770.16;;;12.62;59.05
76201;BME280;64981;52.930;9.266;2023-04-24T08:48:18;99771.81;;;12.76;58.80
76201;BME280;64981;52.930;9.266;2023-04-24T08:50:44;99774.16;;;12.52;58.71
76201;BME280;64981;52.930;9.266;2023-04-24T08:53:11;99778.50;;;12.66;59.01
76201;BME280;64981;52.930;9.266;2023-04-24T08:55:37;99779.81;;;12.42;59.42
76201;BME280;64981;52.930;9.266;2023-04-24T08:58:04;99785.16;;;12.49;60.48
76201;BME280;64981;52.930;9.266;2023-04-24T09:00:30;99770.47;;;12.46;59.18
76201;BME280;64981;52.930;9.266;2023-04-24T09:02:56;99772.56;;;12.57;58.44
76201;BME280;64981;52.930;9.266;2023-04-24T09:05:23;99768.91;;;12.65;58.79
76201;BME280;64981;52.930;9.266;2023-04-24T09:07:54;99765.19;;;13.00;58.03
76201;BME280;64981;52.930;9.266;2023-04-24T09:10:22;99763.75;;;13.11;57.74
76201;BME280;64981;52.930;9.266;2023-04-24T09:12:50;99771.34;;;13.53;57.30
76201;BME280;64981;52.930;9.266;2023-04-24T09:15:16;99778.25;;;13.28;57.17
76201;BME280;64981;52.930;9.266;2023-04-24T09:17:43;99776.22;;;13.23;57.38
76201;BME280;64981;52.930;9.266;2023-04-24T09:20:09;99795.19;;;13.27;56.04
76201;BME280;64981;52.930;9.266;2023-04-24T09:22:34;99789.34;;;12.77;57.16
76201;BME280;64981;52.930;9.266;2023-04-24T09:25:06;99793.88;;;12.83;56.95
76201;BME280;64981;52.930;9.266;2023-04-24T09:27:34;99791.56;;;12.74;56.87
76201;BME280;64981;52.930;9.266;2023-04-24T09:30:00;99786.06;;;12.69;56.91
76201;BME280;64981;52.930;9.266;2023-04-24T09:32:26;99791.03;;;12.91;56.24
76201;BME280;64981;52.930;9.266;2023-04-24T09:35:13;99784.44;;;12.27;57.75
76201;BME280;64981;52.930;9.266;2023-04-24T09:37:42;99786.56;;;12.44;57.34
76201;BME280;64981;52.930;9.266;2023-04-24T09:40:18;99791.28;;;12.49;56.84
76201;BME280;64981;52.930;9.266;2023-04-24T09:42:51;99781.50;;;12.50;57.17
76201;BME280;64981;52.930;9.266;2023-04-24T09:45:16;99789.84;;;12.47;57.85
76201;BME280;64981;52.930;9.266;2023-04-24T09:47:42;99788.25;;;12.59;57.28
76201;BME280;64981;52.930;9.266;2023-04-24T09:50:13;99791.22;;;12.83;57.10
76201;BME280;64981;52.930;9.266;2023-04-24T09:52:44;99792.09;;;12.50;56.97
76201;BME280;64981;52.930;9.266;2023-04-24T09:55:16;99782.78;;;12.67;57.47
76201;BME280;64981;52.930;9.266;2023-04-24T09:57:50;99785.59;;;12.52;58.09
76201;BME280;64981;52.930;9.266;2023-04-24T10:00:26;99794.66;;;12.77;57.43
76201;BME280;64981;52.930;9.266;2023-04-24T10:03:02;99798.63;;;13.08;57.02
76201;BME280;64981;52.930;9.266;2023-04-24T10:05:31;99785.28;;;12.81;57.77
76201;BME280;64981;52.930;9.266;2023-04-24T10:08:01;99786.56;;;12.92;57.40
76201;BME280;64981;52.930;9.266;2023-04-24T10:10:28;99791.88;;;13.05;57.22
76201;BME280;64981;52.930;9.266;2023-04-24T10:12:54;99787.78;;;12.96;57.23
76201;BME280;64981;52.930;9.266;2023-04-24T10:15:20;99787.81;;;13.09;56.68
76201;BME280;64981;52.930;9.266;2023-04-24T10:17:48;99790.47;;;12.55;57.01
76201;BME280;64981;52.930;9.266;2023-04-24T10:20:21;99780.56;;;12.77;56.73
76201;BME280;64981;52.930;9.266;2023-04-24T10:22:49;99783.44;;;12.82;56.82
76201;BME280;64981;52.930;9.266;2023-04-24T10:25:18;99797.00;;;13.00;55.47
76201;BME280;64981;52.930;9.266;2023-04-24T10:27:45;99805.97;;;12.58;56.82
76201;BME280;64981;52.930;9.266;2023-04-24T10:30:12;99800.19;;;12.41;57.46
76201;BME280;64981;52.930;9.266;2023-04-24T10:32:38;99795.91;;;12.34;57.89
76201;BME280;64981;52.930;9.266;2023-04-24T10:35:07;99794.16;;;12.61;57.27
76201;BME280;64981;52.930;9.266;2023-04-24T10:37:39;99804.06;;;12.05;59.11
76201;BME280;64981;52.930;9.266;2023-04-24T10:40:06;99802.13;;;12.20;58.92
76201;BME280;64981;52.930;9.266;2023-04-24T10:42:33;99804.16;;;12.18;59.09
76201;BME280;64981;52.930;9.266;2023-04-24T10:44:59;99804.38;;;12.23;58.81
76201;BME280;64981;52.930;9.266;2023-04-24T10:47:27;99810.44;;;12.51;58.32
76201;BME280;64981;52.930;9.266;2023-04-24T10:49:52;99802.03;;;12.34;59.12
76201;BME280;64981;52.930;9.266;2023-04-24T10:52:19;99795.69;;;12.35;58.74
76201;BME280;64981;52.930;9.266;2023-04-24T10:54:47;99805.16;;;12.58;58.30
76201;BME280;64981;52.930;9.266;2023-04-24T10:57:26;99801.13;;;12.21;58.46
76201;BME280;64981;52.930;9.266;2023-04-24T11:00:13;99809.00;;;11.80;60.06
76201;BME280;64981;52.930;9.266;2023-04-24T11:02:40;99806.84;;;12.24;59.21
76201;BME280;64981;52.930;9.266;2023-04-24T11:05:09;99805.81;;;12.25;59.10
76201;BME280;64981;52.930;9.266;2023-04-24T11:10:38;99806.50;;;12.34;57.80
76201;BME280;64981;52.930;9.266;2023-04-24T11:13:04;99804.66;;;12.41;58.16
76201;BME280;64981;52.930;9.266;2023-04-24T11:15:29;99808.56;;;12.45;57.44
76201;BME280;64981;52.930;9.266;2023-04-24T11:17:55;99802.34;;;12.72;57.68
76201;BME280;64981;52.930;9.266;2023-04-24T11:20:23;99802.97;;;12.68;56.78
76201;BME280;64981;52.930;9.266;2023-04-24T11:22:53;99801.97;;;12.28;57.51
76201;BME280;64981;52.930;9.266;2023-04-24T11:25:21;99807.06;;;12.29;57.34
76201;BME280;64981;52.930;9.266;2023-04-24T11:27:49;99800.16;;;12.35;57.78
76201;BME280;64981;52.930;9.266;2023-04-24T11:30:20;99807.94;;;12.02;57.96
76201;BME280;64981;52.930;9.266;2023-04-24T11:32:51;99794.53;;;12.10;57.77
76201;BME280;64981;52.930;9.266;2023-04-24T11:35:20;99792.50;;;12.47;57.75
76201;BME280;64981;52.930;9.266;2023-04-24T11:37:49;99798.63;;;12.54;57.95
76201;BME280;64981;52.930;9.266;2023-04-24T11:40:17;99791.16;;;12.70;57.41
76201;BME280;64981;52.930;9.266;2023-04-24T11:42:44;99802.13;;;12.61;57.79
76201;BME280;64981;52.930;9.266;2023-04-24T11:45:16;99807.91;;;12.77;56.84
76201;BME280;64981;52.930;9.266;2023-04-24T11:47:44;99810.50;;;12.23;58.46
76201;BME280;64981;52.930;9.266;2023-04-24T11:50:13;99806.13;;;12.43;57.92
76201;BME280;64981;52.930;9.266;2023-04-24T11:52:41;99817.63;;;12.23;58.94
76201;BME280;64981;52.930;9.266;2023-04-24T11:55:23;99824.75;;;11.95;59.41
76201;BME280;64981;52.930;9.266;2023-04-24T11:57:53;99815.59;;;11.90;59.73
76201;BME280;64981;52.930;9.266;2023-04-24T12:00:24;99833.09;;;12.26;59.45
76201;BME280;64981;52.930;9.266;2023-04-24T12:02:51;99824.72;;;11.88;59.95
76201;BME280;64981;52.930;9.266;2023-04-24T12:05:26;99826.84;;;12.33;59.42
76201;BME280;64981;52.930;9.266;2023-04-24T12:07:53;99836.03;;;12.37;58.89
76201;BME280;64981;52.930;9.266;2023-04-24T12:10:24;99833.63;;;12.08;59.01
76201;BME280;64981;52.930;9.266;2023-04-24T12:12:50;99825.00;;;11.72;60.19
76201;BME280;64981;52.930;9.266;2023-04-24T12:15:19;99832.69;;;11.67;60.58
76201;BME280;64981;52.930;9.266;2023-04-24T12:17:45;99835.09;;;12.17;59.76
76201;BME280;64981;52.930;9.266;2023-04-24T12:20:12;99823.56;;;12.25;59.38
76201;BME280;64981;52.930;9.266;2023-04-24T12:22:49;99843.59;;;12.40;58.42
76201;BME280;64981;52.930;9.266;2023-04-24T12:25:17;99839.69;;;11.74;59.43
76201;BME280;64981;52.930;9.266;2023-04-24T12:27:44;99833.13;;;11.98;59.21
76201;BME280;64981;52.930;9.266;2023-04-24T12:30:14;99829.72;;;12.38;57.88
76201;BME280;64981;52.930;9.266;2023-04-24T12:32:46;99834.13;;;12.25;57.92
76201;BME280;64981;52.930;9.266;2023-04-24T12:35:12;99828.97;;;12.51;57.91
76201;BME280;64981;52.930;9.266;2023-04-24T12:37:38;99822.34;;;12.27;58.32
76201;BME280;64981;52.930;9.266;2023-04-24T12:40:08;99818.19;;;11.84;60.23
76201;BME280;64981;52.930;9.266;2023-04-24T12:42:35;99825.25;;;11.77;61.42
76201;BME280;64981;52.930;9.266;2023-04-24T12:45:04;99822.69;;;11.62;61.81
76201;BME280;64981;52.930;9.266;2023-04-24T12:47:32;99823.53;;;11.90;61.56
76201;BME280;64981;52.930;9.266;2023-04-24T12:49:58;99837.00;;;11.96;61.33
76201;BME280;64981;52.930;9.266;2023-04-24T12:52:27;99826.06;;;11.77;62.10
76201;BME280;64981;52.930;9.266;2023-04-24T12:54:54;99826.75;;;11.86;62.58
76201;BME280;64981;52.930;9.266;2023-04-24T12:57:21;99820.66;;;11.43;63.48
76201;BME280;64981;52.930;9.266;2023-04-24T12:59:47;99832.75;;;11.52;64.69
76201;BME280;64981;52.930;9.266;2023-04-24T13:02:13;99837.78;;;11.05;67.70